Time;durP1;ratioP1;P1;durP2;ratioP2;P2;SDS_P1;SDS_P2;PMS_P1;PMS_P2;Temp;Humidity;BMP_temperature;BMP_pressure;BME280_temperature;BME280_humidity;BME280_pressure;Samples;Min_cycle;Max_cycle;Signal;HPM_P1;HPM_P2
2022/04/05 00:01:53;;;;;;;12.80;11.60;;;8.60;99.90;;;;;;5054013;28;20889;-65
2022/04/05 00:04:20;;;;;;;13.40;12.20;;;8.60;99.90;;;;;;5053964;28;20480;-64
2022/04/05 00:06:46;;;;;;;13.30;12.03;;;8.70;99.90;;;;;;5054092;28;20446;-64
2022/04/05 00:09:13;;;;;;;13.70;12.50;;;8.70;99.90;;;;;;5053602;28;20453;-64
2022/04/05 00:11:40;;;;;;;12.57;11.47;;;8.60;99.90;;;;;;5053749;28;20473;-64
2022/04/05 00:14:09;;;;;;;13.37;12.17;;;8.70;99.90;;;;;;5053843;28;20491;-64
2022/04/05 00:16:35;;;;;;;12.83;11.73;;;8.70;99.90;;;;;;5053861;28;20501;-64
2022/04/05 00:19:02;;;;;;;13.63;12.33;;;8.80;99.90;;;;;;5053551;28;20461;-64
2022/04/05 00:21:29;;;;;;;13.37;12.13;;;8.80;99.90;;;;;;5053637;28;20473;-64
2022/04/05 00:23:55;;;;;;;13.97;12.57;;;8.80;99.90;;;;;;5053627;28;20484;-64
2022/04/05 00:26:22;;;;;;;14.03;12.73;;;8.80;99.90;;;;;;5053756;28;20440;-64
2022/04/05 00:28:49;;;;;;;13.00;11.80;;;8.80;99.90;;;;;;5053644;28;20451;-65
2022/04/05 00:31:17;;;;;;;13.23;12.03;;;8.80;99.90;;;;;;5053536;28;20473;-64
2022/04/05 00:33:44;;;;;;;13.00;11.80;;;8.90;99.90;;;;;;5053678;28;20441;-64
2022/04/05 00:36:10;;;;;;;13.80;12.50;;;8.90;99.90;;;;;;5053558;28;20446;-65
2022/04/05 00:38:37;;;;;;;12.73;11.53;;;8.90;99.90;;;;;;5053217;28;20960;-64
2022/04/05 00:41:04;;;;;;;12.80;11.60;;;8.90;99.90;;;;;;5053110;28;20454;-65
2022/04/05 00:43:31;;;;;;;12.53;11.37;;;9.00;99.90;;;;;;5053327;28;20485;-64
2022/04/05 00:45:57;;;;;;;12.43;11.30;;;8.90;99.90;;;;;;5053397;28;20471;-65
2022/04/05 00:48:31;;;;;;;13.73;12.43;;;9.00;99.90;;;;;;5053391;28;20527;-64
2022/04/05 00:50:58;;;;;;;13.20;12.00;;;9.00;99.90;;;;;;5053251;28;20462;-64
2022/04/05 00:53:26;;;;;;;12.73;11.63;;;9.00;99.90;;;;;;5053342;28;20457;-64
2022/04/05 00:55:55;;;;;;;12.80;11.70;;;9.00;99.90;;;;;;5052918;28;20986;-64
2022/04/05 00:58:24;;;;;;;13.17;11.97;;;9.00;99.90;;;;;;5053274;28;20495;-65
2022/04/05 01:00:52;;;;;;;13.03;11.83;;;9.10;99.90;;;;;;5053181;28;20470;-64
2022/04/05 01:03:19;;;;;;;12.00;10.90;;;9.10;99.90;;;;;;5053183;28;20482;-64
2022/04/05 01:05:48;;;;;;;12.50;11.40;;;9.10;99.90;;;;;;5053159;28;20449;-64
2022/04/05 01:08:18;;;;;;;12.77;11.47;;;9.10;99.90;;;;;;5053182;28;20448;-63
2022/04/05 01:10:46;;;;;;;13.77;12.40;;;9.10;99.90;;;;;;5053162;28;20470;-63
2022/04/05 01:13:12;;;;;;;13.40;12.13;;;9.10;99.90;;;;;;5053140;28;20457;-63
2022/04/05 01:15:40;;;;;;;13.23;12.03;;;9.20;99.90;;;;;;5053254;28;20449;-63
2022/04/05 01:18:07;;;;;;;14.03;12.53;;;9.20;99.90;;;;;;5052981;28;20453;-63
2022/04/05 01:20:34;;;;;;;13.73;12.43;;;9.20;99.90;;;;;;5052695;28;20453;-65
2022/04/05 01:23:02;;;;;;;13.33;12.03;;;9.20;99.90;;;;;;5056493;28;20452;-64
2022/04/05 01:25:30;;;;;;;13.60;12.30;;;9.20;99.90;;;;;;5057082;28;20457;-64
2022/04/05 01:27:57;;;;;;;13.07;11.77;;;9.30;99.90;;;;;;5057055;28;20453;-64
2022/04/05 01:30:24;;;;;;;13.67;12.37;;;9.20;99.90;;;;;;5056916;28;20452;-64
2022/04/05 01:32:51;;;;;;;12.33;11.10;;;9.30;99.90;;;;;;5056888;28;20453;-64
2022/04/05 01:35:18;;;;;;;11.97;10.77;;;9.30;99.90;;;;;;5057039;28;20861;-64
2022/04/05 01:37:44;;;;;;;13.00;11.77;;;9.40;99.90;;;;;;5056871;28;20449;-64
2022/04/05 01:40:13;;;;;;;13.60;12.23;;;9.40;99.90;;;;;;5056564;28;20959;-64
2022/04/05 01:42:41;;;;;;;12.83;10.60;;;9.40;99.90;;;;;;5056719;28;20473;-63
2022/04/05 01:45:09;;;;;;;13.60;12.23;;;9.40;99.90;;;;;;5056497;28;20488;-64
2022/04/05 01:47:38;;;;;;;13.43;12.13;;;9.40;99.90;;;;;;5056649;28;20445;-64
2022/04/05 01:50:06;;;;;;;13.23;12.00;;;9.40;99.90;;;;;;5056578;28;20457;-64
2022/04/05 01:52:33;;;;;;;12.97;11.67;;;9.50;99.90;;;;;;5056155;28;21009;-64
2022/04/05 01:55:00;;;;;;;14.90;12.27;;;9.60;99.90;;;;;;5056616;28;20885;-64
2022/04/05 01:57:27;;;;;;;13.50;12.20;;;9.60;99.90;;;;;;5056475;28;20445;-63
2022/04/05 01:59:55;;;;;;;14.50;13.00;;;9.50;99.90;;;;;;5056498;28;20452;-63
2022/04/05 02:02:21;;;;;;;13.50;12.07;;;9.50;99.90;;;;;;5056335;28;20487;-63
2022/04/05 02:04:48;;;;;;;13.27;11.97;;;9.50;99.90;;;;;;5056238;28;20491;-63
2022/04/05 02:07:18;;;;;;;13.80;12.40;;;9.50;99.90;;;;;;5056030;28;20995;-64
2022/04/05 02:09:45;;;;;;;13.40;12.00;;;9.60;99.90;;;;;;5056236;28;20449;-64
2022/04/05 02:12:12;;;;;;;12.30;11.00;;;9.60;99.90;;;;;;5055874;28;21034;-64
2022/04/05 02:14:39;;;;;;;12.03;10.73;;;9.60;99.90;;;;;;5055852;28;20532;-64
2022/04/05 02:17:08;;;;;;;15.00;13.40;;;9.60;99.90;;;;;;5055855;28;20798;-65
2022/04/05 02:19:36;;;;;;;13.97;12.53;;;9.60;99.90;;;;;;5055754;28;20471;-65
2022/04/05 02:22:03;;;;;;;14.33;12.43;;;9.70;99.90;;;;;;5055895;28;20516;-65
2022/04/05 02:24:29;;;;;;;13.27;11.87;;;9.70;99.90;;;;;;5055574;28;21012;-64
2022/04/05 02:26:56;;;;;;;15.23;13.63;;;9.70;99.90;;;;;;5056197;28;20452;-64
2022/04/05 02:29:24;;;;;;;15.23;13.63;;;9.70;99.90;;;;;;5055961;28;20453;-64
2022/04/05 02:31:50;;;;;;;16.57;13.60;;;9.70;99.90;;;;;;5055936;28;20470;-64
2022/04/05 02:34:18;;;;;;;13.37;12.07;;;9.70;99.90;;;;;;5055723;28;20433;-64
2022/04/05 02:36:45;;;;;;;14.30;12.80;;;9.70;99.90;;;;;;5055492;28;20969;-64
2022/04/05 02:39:12;;;;;;;14.73;12.67;;;9.80;99.90;;;;;;5055759;28;20817;-64
2022/04/05 02:41:39;;;;;;;14.47;12.97;;;9.80;99.90;;;;;;5055554;28;20465;-64
2022/04/05 02:44:07;;;;;;;13.37;11.90;;;9.80;99.90;;;;;;5055614;28;20568;-64
2022/04/05 02:46:34;;;;;;;15.27;13.67;;;9.80;99.90;;;;;;5055545;28;20503;-64
2022/04/05 02:49:01;;;;;;;15.80;14.27;;;9.90;99.90;;;;;;5055265;28;20453;-64
2022/04/05 02:51:29;;;;;;;16.47;14.77;;;9.90;99.90;;;;;;5055343;28;20469;-64
2022/04/05 02:53:56;;;;;;;18.17;15.87;;;9.90;99.90;;;;;;5055488;28;20450;-65
2022/04/05 02:56:22;;;;;;;16.40;14.70;;;9.90;99.90;;;;;;5055670;28;20928;-65
2022/04/05 02:58:49;;;;;;;19.70;17.77;;;10.00;99.90;;;;;;5055443;28;20449;-64
2022/04/05 03:01:17;;;;;;;18.03;16.13;;;10.00;99.90;;;;;;5055111;28;20477;-65
2022/04/05 03:03:44;;;;;;;18.57;16.67;;;10.00;99.90;;;;;;5055956;28;20453;-64
2022/04/05 03:06:11;;;;;;;18.07;16.20;;;10.10;99.90;;;;;;5054942;28;20452;-65
2022/04/05 03:08:40;;;;;;;18.37;16.47;;;10.00;99.90;;;;;;5055202;28;20455;-65
2022/04/05 03:11:06;;;;;;;19.00;16.93;;;10.00;99.90;;;;;;5055000;28;20473;-65
2022/04/05 03:13:34;;;;;;;18.90;15.50;;;10.00;99.90;;;;;;5055307;28;20445;-65
2022/04/05 03:16:00;;;;;;;15.80;14.10;;;10.10;99.90;;;;;;5055121;28;20453;-65
2022/04/05 03:18:27;;;;;;;16.60;14.80;;;10.10;99.90;;;;;;5054876;28;20472;-65
2022/04/05 03:20:54;;;;;;;17.03;15.10;;;10.10;99.90;;;;;;5054798;28;20484;-65
2022/04/05 03:23:21;;;;;;;16.53;14.60;;;10.10;99.90;;;;;;5054938;28;20445;-64
2022/04/05 03:25:49;;;;;;;17.07;15.23;;;10.10;99.90;;;;;;5054869;28;20485;-64
2022/04/05 03:28:16;;;;;;;13.30;11.90;;;10.20;99.90;;;;;;5054789;28;20457;-64
2022/04/05 03:30:43;;;;;;;13.87;12.43;;;10.20;99.90;;;;;;5056472;28;20469;-61
2022/04/05 03:33:10;;;;;;;14.33;12.83;;;10.20;99.90;;;;;;5057965;28;20479;-61
2022/04/05 03:35:37;;;;;;;15.20;13.50;;;10.20;99.90;;;;;;5061111;28;20460;-61
2022/04/05 03:38:04;;;;;;;16.70;14.97;;;10.20;99.90;;;;;;5059891;28;20445;-61
2022/04/05 03:40:31;;;;;;;15.57;13.97;;;10.20;99.90;;;;;;5057638;28;20461;-62
2022/04/05 03:42:59;;;;;;;15.00;13.40;;;10.30;99.90;;;;;;5057697;28;20955;-62
2022/04/05 03:45:27;;;;;;;15.70;13.37;;;10.30;99.90;;;;;;5058516;28;21012;-62
2022/04/05 03:47:54;;;;;;;15.30;13.70;;;10.30;99.90;;;;;;5058570;28;20937;-62
2022/04/05 03:50:20;;;;;;;16.00;13.53;;;10.30;99.90;;;;;;5058626;28;20445;-62
2022/04/05 03:52:47;;;;;;;14.70;13.13;;;10.30;99.90;;;;;;5059150;28;20518;-61
2022/04/05 03:55:14;;;;;;;15.47;12.87;;;10.30;99.90;;;;;;5057945;28;20448;-61
2022/04/05 03:57:41;;;;;;;18.07;13.97;;;10.30;99.90;;;;;;5057544;28;20448;-61
2022/04/05 04:00:10;;;;;;;17.43;14.80;;;10.30;99.90;;;;;;5057355;28;20963;-61
2022/04/05 04:02:37;;;;;;;16.40;14.50;;;10.30;99.90;;;;;;5058049;28;20473;-62
2022/04/05 04:05:04;;;;;;;16.83;15.07;;;10.40;99.90;;;;;;5057989;28;20992;-62
2022/04/05 04:07:31;;;;;;;17.83;15.07;;;10.30;99.90;;;;;;5058110;28;20438;-62
2022/04/05 04:10:02;;;;;;;16.43;14.57;;;10.40;99.90;;;;;;5059244;28;20445;-61
2022/04/05 04:12:29;;;;;;;18.13;15.43;;;10.30;99.90;;;;;;5058316;28;20465;-61
2022/04/05 04:14:56;;;;;;;19.13;16.30;;;10.40;99.90;;;;;;5058457;28;20445;-61
2022/04/05 04:17:25;;;;;;;20.17;16.63;;;10.40;99.90;;;;;;5058121;28;20452;-61
2022/04/05 04:19:52;;;;;;;18.37;16.40;;;10.40;99.90;;;;;;5057853;28;20472;-61
2022/04/05 04:22:19;;;;;;;20.13;17.10;;;10.40;99.90;;;;;;5059438;28;20473;-62
2022/04/05 04:24:46;;;;;;;19.87;16.50;;;10.50;99.90;;;;;;5058879;28;20484;-61
2022/04/05 04:27:13;;;;;;;20.50;18.17;;;10.50;99.90;;;;;;5058910;28;20456;-61
2022/04/05 04:29:39;;;;;;;20.80;18.60;;;10.50;99.90;;;;;;5058568;28;20449;-62
2022/04/05 04:32:07;;;;;;;21.23;18.93;;;10.50;99.90;;;;;;5058859;28;20564;-61
2022/04/05 04:34:35;;;;;;;25.13;19.70;;;10.60;99.90;;;;;;5057774;28;20453;-61
2022/04/05 04:37:04;;;;;;;22.07;19.57;;;10.60;99.90;;;;;;5058704;28;20450;-61
2022/04/05 04:39:31;;;;;;;26.30;21.17;;;10.60;99.90;;;;;;5063206;28;20450;-61
2022/04/05 04:41:57;;;;;;;21.63;19.27;;;10.60;99.90;;;;;;5060106;28;20462;-61
2022/04/05 04:44:25;;;;;;;22.17;19.30;;;10.60;99.90;;;;;;5060613;28;20480;-61
2022/04/05 04:46:51;;;;;;;21.33;19.07;;;10.60;99.90;;;;;;5060535;28;20453;-61
2022/04/05 04:49:18;;;;;;;23.53;19.10;;;10.60;99.90;;;;;;5058878;28;20426;-61
2022/04/05 04:51:46;;;;;;;21.83;19.40;;;10.60;99.90;;;;;;5058735;28;20469;-62
2022/04/05 04:54:13;;;;;;;25.00;20.27;;;10.60;99.90;;;;;;5058595;28;20460;-62
2022/04/05 04:56:40;;;;;;;24.17;20.50;;;10.70;99.90;;;;;;5059104;28;20452;-61
2022/04/05 04:59:06;;;;;;;26.07;21.20;;;10.70;99.90;;;;;;5058746;28;20445;-62
2022/04/05 05:01:34;;;;;;;25.00;21.90;;;10.70;99.90;;;;;;5059763;28;21034;-62
2022/04/05 05:04:01;;;;;;;24.47;21.00;;;10.70;99.90;;;;;;5061730;28;20485;-62
2022/04/05 05:06:28;;;;;;;24.27;21.03;;;10.70;99.90;;;;;;5060525;28;20485;-62
2022/04/05 05:08:56;;;;;;;25.07;22.33;;;10.70;99.90;;;;;;5061775;28;20449;-62
2022/04/05 05:11:23;;;;;;;25.63;21.83;;;10.80;99.90;;;;;;5059515;28;20473;-62
2022/04/05 05:13:50;;;;;;;28.37;23.13;;;10.80;99.90;;;;;;5059609;28;20450;-62
2022/04/05 05:16:17;;;;;;;25.17;21.57;;;10.80;99.90;;;;;;5058304;28;20442;-62
2022/04/05 05:18:44;;;;;;;27.80;23.77;;;10.80;99.90;;;;;;5057338;28;20472;-62
2022/04/05 05:21:10;;;;;;;28.87;24.20;;;10.80;99.90;;;;;;5057559;28;20473;-62
2022/04/05 05:23:38;;;;;;;25.60;22.20;;;10.80;99.90;;;;;;5057005;28;20448;-62
2022/04/05 05:26:06;;;;;;;26.83;23.10;;;10.80;99.90;;;;;;5057423;28;20513;-62
2022/04/05 05:28:33;;;;;;;28.90;24.07;;;10.80;99.90;;;;;;5057693;28;20452;-62
2022/04/05 05:30:59;;;;;;;26.73;23.83;;;10.80;99.90;;;;;;5057538;28;20476;-62
2022/04/05 05:33:26;;;;;;;26.90;24.00;;;10.90;99.90;;;;;;5057716;28;20460;-62
2022/04/05 05:35:53;;;;;;;27.53;23.90;;;10.90;99.90;;;;;;5056644;28;20468;-62
2022/04/05 05:38:19;;;;;;;28.80;24.77;;;10.90;99.90;;;;;;5056834;28;20442;-63
2022/04/05 05:40:46;;;;;;;26.80;23.30;;;10.90;99.90;;;;;;5057511;28;20472;-62
2022/04/05 05:43:14;;;;;;;27.77;24.80;;;10.90;99.90;;;;;;5057852;28;20456;-62
2022/04/05 05:45:41;;;;;;;26.13;23.33;;;11.00;99.90;;;;;;5061313;28;20481;-63
2022/04/05 05:48:09;;;;;;;29.10;23.20;;;10.90;99.90;;;;;;5060854;28;20451;-63
2022/04/05 05:50:36;;;;;;;28.10;24.00;;;10.90;99.90;;;;;;5057101;28;20456;-62
2022/04/05 05:53:03;;;;;;;30.70;23.40;;;11.00;99.90;;;;;;5056621;28;20430;-64
2022/04/05 05:55:30;;;;;;;28.77;23.80;;;11.00;99.90;;;;;;5060249;28;20815;-62
2022/04/05 05:57:57;;;;;;;29.50;26.30;;;11.00;99.90;;;;;;5060502;28;20441;-62
2022/04/05 06:00:25;;;;;;;29.90;24.90;;;11.00;99.90;;;;;;5058025;28;20921;-62
2022/04/05 06:02:55;;;;;;;27.27;24.43;;;11.10;99.90;;;;;;5057897;28;20452;-63
2022/04/05 06:05:22;;;;;;;30.53;25.70;;;11.10;99.90;;;;;;5057311;28;20519;-63
2022/04/05 06:07:49;;;;;;;26.23;23.43;;;11.10;99.90;;;;;;5059246;28;20437;-62
2022/04/05 06:10:16;;;;;;;27.30;24.37;;;11.10;99.90;;;;;;5062851;28;20453;-62
2022/04/05 06:12:45;;;;;;;27.60;23.20;;;11.10;99.90;;;;;;5064010;28;20534;-62
2022/04/05 06:15:13;;;;;;;25.50;22.50;;;11.00;99.90;;;;;;5062696;28;20468;-62
2022/04/05 06:17:43;;;;;;;31.67;23.70;;;11.10;99.90;;;;;;5061276;28;20796;-62
2022/04/05 06:20:12;;;;;;;29.60;24.97;;;11.10;99.90;;;;;;5060778;28;20464;-61
2022/04/05 06:22:43;;;;;;;29.80;24.20;;;11.00;99.90;;;;;;5061593;28;20470;-62
2022/04/05 06:25:11;;;;;;;31.33;24.73;;;11.00;99.90;;;;;;5061453;28;20492;-62
2022/04/05 06:27:39;;;;;;;28.43;24.07;;;11.00;99.90;;;;;;5061951;28;20445;-62
2022/04/05 06:30:08;;;;;;;26.80;23.60;;;11.00;99.90;;;;;;5062547;28;20517;-61
2022/04/05 06:32:36;;;;;;;27.87;22.03;;;11.00;99.90;;;;;;5062839;28;20477;-62
2022/04/05 06:35:05;;;;;;;23.40;20.60;;;11.00;99.90;;;;;;5061190;28;20802;-62
2022/04/05 06:37:32;;;;;;;23.73;21.23;;;11.00;99.90;;;;;;5061878;28;20457;-63
2022/04/05 06:39:59;;;;;;;23.00;19.90;;;11.10;99.90;;;;;;5061564;28;20442;-63
2022/04/05 06:42:27;;;;;;;22.70;20.37;;;11.10;99.90;;;;;;5062552;28;20480;-62
2022/04/05 06:44:54;;;;;;;22.30;19.63;;;11.10;99.90;;;;;;5061607;28;20430;-62
2022/04/05 06:47:21;;;;;;;20.20;17.60;;;11.10;99.90;;;;;;5061413;28;20456;-62
2022/04/05 06:49:48;;;;;;;19.03;17.03;;;11.10;99.90;;;;;;5061407;28;20460;-62
2022/04/05 06:52:16;;;;;;;19.23;17.07;;;11.10;99.90;;;;;;5061163;28;20473;-62
2022/04/05 06:54:43;;;;;;;17.03;15.33;;;11.10;99.90;;;;;;5061770;28;20437;-62
2022/04/05 06:57:10;;;;;;;16.20;14.60;;;11.10;99.90;;;;;;5061385;28;20972;-62
2022/04/05 06:59:37;;;;;;;20.77;15.53;;;11.10;99.90;;;;;;5061733;28;20437;-62
2022/04/05 07:02:04;;;;;;;19.23;16.53;;;11.10;99.90;;;;;;5062274;28;20992;-62
2022/04/05 07:04:30;;;;;;;15.37;13.77;;;11.20;99.90;;;;;;5060074;28;20450;-62
2022/04/05 07:06:57;;;;;;;15.30;13.53;;;11.20;99.90;;;;;;5060666;28;20492;-62
2022/04/05 07:09:25;;;;;;;16.80;14.23;;;11.20;99.90;;;;;;5061014;28;20445;-62
2022/04/05 07:11:52;;;;;;;13.20;11.90;;;11.30;99.90;;;;;;5060695;28;20465;-62
2022/04/05 07:14:19;;;;;;;13.70;12.40;;;11.20;99.90;;;;;;5060904;28;20446;-63
2022/04/05 07:16:45;;;;;;;14.30;12.73;;;11.20;99.90;;;;;;5062075;28;20452;-72
2022/04/05 07:19:12;;;;;;;14.87;13.47;;;11.20;99.90;;;;;;5054579;28;20972;-67
2022/04/05 07:21:39;;;;;;;14.67;13.27;;;11.20;99.90;;;;;;5055423;28;20474;-68
2022/04/05 07:24:07;;;;;;;14.30;12.83;;;11.20;99.90;;;;;;5055546;28;20437;-68
2022/04/05 07:26:35;;;;;;;13.83;12.43;;;11.10;99.90;;;;;;5055259;28;21008;-67
2022/04/05 07:29:01;;;;;;;14.40;12.90;;;11.10;99.90;;;;;;5055751;28;20453;-67
2022/04/05 07:31:28;;;;;;;15.30;13.70;;;11.20;99.90;;;;;;5056154;28;20469;-67
2022/04/05 07:33:55;;;;;;;16.13;14.00;;;11.10;99.90;;;;;;5055793;28;20441;-68
2022/04/05 07:36:22;;;;;;;16.63;14.83;;;11.10;99.90;;;;;;5055814;28;20445;-68
2022/04/05 07:38:48;;;;;;;16.17;14.10;;;11.10;99.90;;;;;;5056521;28;20503;-67
2022/04/05 07:41:15;;;;;;;16.97;15.13;;;11.20;99.90;;;;;;5055657;28;20873;-67
2022/04/05 07:43:43;;;;;;;16.17;14.40;;;11.20;99.90;;;;;;5055245;28;20460;-67
2022/04/05 07:46:11;;;;;;;16.50;14.90;;;11.20;99.90;;;;;;5055104;28;21012;-67
2022/04/05 07:48:39;;;;;;;17.50;15.50;;;11.20;99.90;;;;;;5055520;28;20812;-67
2022/04/05 07:51:06;;;;;;;20.27;16.97;;;11.30;99.90;;;;;;5054626;28;20523;-67
2022/04/05 07:53:32;;;;;;;20.27;18.27;;;11.30;99.90;;;;;;5054771;28;20454;-68
2022/04/05 07:55:59;;;;;;;19.00;17.20;;;11.40;99.90;;;;;;5054564;28;20445;-67
2022/04/05 07:58:26;;;;;;;19.97;17.97;;;11.40;99.90;;;;;;5054492;28;20940;-68
2022/04/05 08:00:55;;;;;;;20.57;18.47;;;11.40;99.90;;;;;;5054067;28;20466;-67
2022/04/05 08:03:22;;;;;;;20.87;18.87;;;11.50;99.90;;;;;;5054367;28;20450;-67
2022/04/05 08:05:49;;;;;;;21.23;19.10;;;11.50;99.90;;;;;;5054117;28;20947;-67
2022/04/05 08:08:16;;;;;;;21.23;19.13;;;11.50;99.90;;;;;;5054198;28;20507;-67
2022/04/05 08:10:43;;;;;;;20.50;18.50;;;11.50;99.90;;;;;;5054326;28;20445;-68
2022/04/05 08:13:10;;;;;;;22.87;20.67;;;11.60;99.90;;;;;;5053915;28;20980;-67
2022/04/05 08:15:39;;;;;;;21.27;19.20;;;11.60;99.90;;;;;;5054231;28;20495;-67
2022/04/05 08:18:08;;;;;;;20.83;18.77;;;11.60;99.90;;;;;;5053897;28;20457;-67
2022/04/05 08:20:36;;;;;;;21.97;19.57;;;11.70;99.90;;;;;;5053885;28;20453;-67
2022/04/05 08:23:02;;;;;;;22.20;20.10;;;11.70;99.90;;;;;;5054137;28;20449;-67
2022/04/05 08:25:30;;;;;;;22.70;20.37;;;11.80;99.90;;;;;;5053631;28;20496;-67
2022/04/05 08:27:57;;;;;;;20.67;18.70;;;11.80;99.90;;;;;;5053955;28;20446;-67
2022/04/05 08:30:24;;;;;;;20.93;18.73;;;11.80;99.90;;;;;;5054219;28;20482;-67
2022/04/05 08:32:51;;;;;;;29.50;20.53;;;11.80;99.90;;;;;;5053851;28;20458;-68
2022/04/05 08:35:20;;;;;;;19.97;18.07;;;11.80;99.90;;;;;;5053578;28;20832;-67
2022/04/05 08:37:48;;;;;;;20.40;18.47;;;11.90;99.90;;;;;;5053759;28;20457;-68
2022/04/05 08:40:18;;;;;;;20.97;18.97;;;11.90;99.90;;;;;;5053755;28;20463;-67
2022/04/05 08:42:48;;;;;;;20.30;18.33;;;11.80;99.90;;;;;;5053868;28;20868;-67
2022/04/05 08:45:16;;;;;;;21.33;19.17;;;11.90;99.90;;;;;;5053692;28;20458;-67
2022/04/05 08:47:47;;;;;;;21.73;19.47;;;11.90;99.90;;;;;;5053586;28;20450;-67
2022/04/05 08:50:15;;;;;;;19.93;17.97;;;11.90;99.90;;;;;;5053705;28;20878;-67
2022/04/05 08:52:45;;;;;;;21.23;19.10;;;11.90;99.90;;;;;;5053183;28;20500;-67
2022/04/05 08:55:13;;;;;;;21.50;19.37;;;12.00;99.90;;;;;;5053794;28;20454;-67
2022/04/05 08:57:39;;;;;;;20.17;18.13;;;11.90;99.90;;;;;;5053634;28;20472;-67
2022/04/05 09:00:09;;;;;;;23.30;20.60;;;12.00;99.90;;;;;;5053317;28;20444;-67
2022/04/05 09:02:36;;;;;;;20.70;18.70;;;12.00;99.90;;;;;;5053420;28;20568;-67
2022/04/05 09:05:03;;;;;;;18.47;16.47;;;12.00;99.90;;;;;;5053159;28;20808;-68
2022/04/05 09:07:32;;;;;;;21.50;19.33;;;11.90;99.90;;;;;;5053411;28;20489;-68
2022/04/05 09:10:13;;;;;;;20.70;18.70;;;12.00;99.90;;;;;;5053130;28;20948;-68
2022/04/05 09:12:44;;;;;;;21.57;17.87;;;12.00;99.90;;;;;;5053728;28;20544;-68
2022/04/05 09:15:24;;;;;;;20.70;18.67;;;12.00;99.90;;;;;;5054055;28;20442;-67
2022/04/05 09:17:51;;;;;;;20.03;18.13;;;12.00;99.90;;;;;;5053488;28;20468;-67
2022/04/05 09:20:19;;;;;;;24.00;19.53;;;12.10;99.90;;;;;;5053506;28;20457;-67
2022/04/05 09:22:48;;;;;;;21.00;18.97;;;12.10;99.90;;;;;;5053459;28;20477;-67
2022/04/05 09:25:17;;;;;;;22.47;20.30;;;12.20;99.90;;;;;;5053232;28;20453;-67
2022/04/05 09:27:46;;;;;;;19.83;17.77;;;12.30;99.90;;;;;;5053395;28;20481;-67
2022/04/05 09:30:15;;;;;;;24.00;21.60;;;12.40;99.90;;;;;;5053358;28;20441;-68
2022/04/05 09:32:44;;;;;;;22.63;19.83;;;12.60;99.90;;;;;;5052861;28;20973;-67
2022/04/05 09:35:12;;;;;;;20.80;18.63;;;12.60;99.90;;;;;;5052982;28;20851;-67
2022/04/05 09:37:39;;;;;;;20.60;18.80;;;12.60;99.90;;;;;;5053250;28;20445;-68
2022/04/05 09:40:23;;;;;;;20.47;18.47;;;12.60;99.90;;;;;;5052843;28;20948;-68
2022/04/05 09:43:00;;;;;;;21.33;19.33;;;12.60;99.90;;;;;;5054459;28;20937;-67
2022/04/05 09:45:46;;;;;;;20.03;18.13;;;12.60;99.90;;;;;;5057400;28;20456;-67
2022/04/05 09:48:14;;;;;;;20.63;18.63;;;12.60;99.90;;;;;;5057176;28;20470;-67
2022/04/05 09:51:02;;;;;;;21.67;19.47;;;12.70;99.90;;;;;;5057127;28;20453;-68
2022/04/05 09:53:31;;;;;;;20.83;18.60;;;12.80;99.90;;;;;;5057277;28;20445;-67
2022/04/05 09:56:09;;;;;;;21.83;19.67;;;12.90;99.90;;;;;;5057242;28;20452;-67
2022/04/05 09:58:37;;;;;;;18.07;16.33;;;13.00;99.90;;;;;;5056781;28;20496;-67
2022/04/05 10:01:07;;;;;;;19.33;17.53;;;13.20;99.90;;;;;;5057962;28;20480;-67
2022/04/05 10:03:35;;;;;;;16.77;15.37;;;13.50;99.90;;;;;;5056710;28;20919;-67
2022/04/05 10:06:02;;;;;;;16.07;14.47;;;13.70;99.90;;;;;;5056787;28;20493;-67
2022/04/05 10:08:31;;;;;;;16.70;15.20;;;13.90;99.90;;;;;;5056650;28;20530;-67
2022/04/05 10:10:58;;;;;;;14.47;13.27;;;14.00;99.90;;;;;;5056425;28;20476;-67
2022/04/05 10:13:26;;;;;;;14.20;13.00;;;14.10;99.90;;;;;;5056529;28;20451;-67
2022/04/05 10:15:53;;;;;;;14.20;12.57;;;14.00;99.90;;;;;;5056351;28;20960;-67
2022/04/05 10:18:21;;;;;;;14.50;13.13;;;13.90;99.90;;;;;;5056717;28;20456;-67
2022/04/05 10:20:49;;;;;;;15.70;14.20;;;13.70;99.90;;;;;;5056535;28;20828;-66
2022/04/05 10:23:20;;;;;;;14.17;12.97;;;13.70;99.90;;;;;;5056759;28;20465;-66
2022/04/05 10:25:51;;;;;;;14.40;13.20;;;13.60;99.90;;;;;;5056831;28;20446;-67
2022/04/05 10:28:22;;;;;;;14.57;13.30;;;13.50;99.90;;;;;;5056542;28;20460;-66
2022/04/05 10:30:57;;;;;;;12.63;11.50;;;13.50;99.90;;;;;;5056792;28;20867;-67
2022/04/05 10:33:29;;;;;;;12.60;11.50;;;13.70;99.90;;;;;;5056699;28;20807;-67
2022/04/05 10:35:59;;;;;;;13.60;12.40;;;13.80;99.90;;;;;;5056454;28;20437;-67
2022/04/05 10:38:27;;;;;;;13.07;11.97;;;13.70;99.90;;;;;;5056121;28;20490;-67
2022/04/05 10:41:19;;;;;;;14.20;13.10;;;13.70;99.90;;;;;;5056085;28;20480;-67
2022/04/05 10:43:49;;;;;;;13.67;12.37;;;13.70;99.90;;;;;;5056091;28;20438;-66
2022/04/05 10:46:40;;;;;;;14.13;12.83;;;13.90;99.90;;;;;;5056025;28;20488;-67
2022/04/05 10:49:08;;;;;;;12.97;11.87;;;13.90;99.90;;;;;;5055899;28;20457;-67
2022/04/05 10:52:08;;;;;;;12.50;11.40;;;13.90;99.90;;;;;;5055816;28;20519;-67
2022/04/05 10:54:40;;;;;;;13.93;12.83;;;14.00;99.90;;;;;;5055365;28;20457;-67
2022/04/05 10:57:26;;;;;;;13.33;12.23;;;14.00;99.90;;;;;;5055661;28;20826;-67
2022/04/05 10:59:56;;;;;;;13.63;12.53;;;14.20;99.90;;;;;;5055555;28;20835;-67
2022/04/05 11:02:39;;;;;;;13.43;12.33;;;14.20;99.90;;;;;;5055633;28;20469;-67
2022/04/05 11:05:40;;;;;;;14.50;13.30;;;14.10;99.90;;;;;;5055694;28;20437;-68
2022/04/05 11:08:15;;;;;;;14.13;12.83;;;14.10;99.90;;;;;;5055366;28;20478;-68
2022/04/05 11:10:56;;;;;;;14.33;13.03;;;14.00;99.90;;;;;;5055438;28;20437;-68
2022/04/05 11:13:35;;;;;;;14.63;13.27;;;13.80;99.90;;;;;;5055290;28;20448;-68
2022/04/05 11:16:09;;;;;;;15.00;13.70;;;13.60;99.90;;;;;;5056127;28;20502;-67
2022/04/05 11:18:39;;;;;;;15.27;14.07;;;13.50;99.90;;;;;;5055643;28;20476;-67
2022/04/05 11:21:08;;;;;;;16.50;15.10;;;13.30;99.90;;;;;;5056108;28;20508;-67
2022/04/05 11:23:42;;;;;;;15.27;13.90;;;13.20;99.90;;;;;;5056105;28;20446;-67
2022/04/05 11:26:40;;;;;;;16.80;14.40;;;13.20;99.90;;;;;;5055283;28;20952;-67
2022/04/05 11:29:20;;;;;;;14.90;13.60;;;13.30;99.90;;;;;;5055351;28;20464;-67
2022/04/05 11:31:51;;;;;;;14.70;13.40;;;13.30;99.90;;;;;;5055187;28;20523;-67
2022/04/05 11:34:39;;;;;;;13.27;12.10;;;13.30;99.90;;;;;;5055256;28;20481;-67
2022/04/05 11:37:07;;;;;;;14.70;13.40;;;13.20;99.90;;;;;;5057772;28;20426;-67
2022/04/05 11:39:38;;;;;;;13.50;12.30;;;13.10;99.90;;;;;;5058490;28;20820;-67
2022/04/05 11:42:07;;;;;;;14.80;13.20;;;13.00;99.90;;;;;;5060211;28;20465;-67
2022/04/05 11:44:34;;;;;;;14.10;12.87;;;12.90;99.90;;;;;;5058121;28;20445;-70
2022/04/05 11:47:01;;;;;;;12.90;11.67;;;12.90;99.90;;;;;;5054179;28;20493;-70
2022/04/05 11:49:40;;;;;;;10.70;9.80;;;12.90;99.90;;;;;;5052990;28;20979;-71
2022/04/05 11:52:10;;;;;;;12.07;11.07;;;12.90;99.90;;;;;;5054569;28;20470;-70
2022/04/05 11:56:00;;;;;;;13.73;12.43;;;12.80;99.90;;;;;;5054587;28;20492;-71
2022/04/05 11:57:25;;;;;;;13.20;12.00;;;12.90;99.90;;;;;;5054150;28;20814;-71
2022/04/05 12:00:07;;;;;;;12.97;11.97;;;13.10;99.90;;;;;;5054554;28;20881;-70
2022/04/05 12:02:36;;;;;;;13.37;12.07;;;13.30;99.90;;;;;;5054140;28;21041;-70
2022/04/05 12:05:04;;;;;;;11.83;10.80;;;13.50;99.90;;;;;;5053536;28;20449;-70
2022/04/05 12:07:36;;;;;;;12.10;11.10;;;13.70;99.90;;;;;;5054219;28;20489;-70
2022/04/05 12:10:04;;;;;;;11.63;10.73;;;13.70;99.90;;;;;;5052894;28;20474;-71
2022/04/05 12:12:32;;;;;;;10.73;9.83;;;13.70;99.90;;;;;;5054265;28;20488;-70
2022/04/05 12:14:59;;;;;;;10.90;9.93;;;13.70;99.90;;;;;;5054149;28;20533;-70
2022/04/05 12:17:29;;;;;;;10.00;9.13;;;13.70;99.90;;;;;;5052604;28;20491;-70
2022/04/05 12:19:56;;;;;;;11.73;10.73;;;13.70;99.90;;;;;;5053645;28;20465;-70
2022/04/05 12:22:22;;;;;;;10.57;9.57;;;13.80;99.90;;;;;;5053331;28;20477;-71
2022/04/05 12:24:53;;;;;;;10.67;9.83;;;13.90;99.90;;;;;;5053660;28;20808;-71
2022/04/05 12:27:21;;;;;;;10.57;9.67;;;13.80;99.90;;;;;;5054278;28;20496;-71
2022/04/05 12:29:49;;;;;;;10.60;9.70;;;13.80;99.90;;;;;;5053903;28;20511;-70
2022/04/05 12:32:16;;;;;;;9.87;9.07;;;13.70;99.90;;;;;;5053671;28;20477;-70
2022/04/05 12:34:44;;;;;;;10.30;9.50;;;13.70;99.90;;;;;;5053594;28;20936;-71
2022/04/05 12:37:14;;;;;;;11.00;10.10;;;13.70;99.90;;;;;;5053843;28;20469;-71
2022/04/05 12:39:45;;;;;;;12.63;11.63;;;13.60;99.90;;;;;;5053821;28;20445;-70